createdAt,value
2022-09-28T00:00:25.501Z,4.13
2022-09-28T00:03:01.215Z,3.97
2022-09-28T00:05:36.487Z,4.55
2022-09-28T00:08:14.508Z,3.42
2022-09-28T00:11:04.733Z,3.60
2022-09-28T00:13:39.961Z,3.58
2022-09-28T00:16:18.382Z,3.90
2022-09-28T00:18:54.914Z,3.40
2022-09-28T00:21:31.395Z,3.70
2022-09-28T00:24:24.050Z,3.85
2022-09-28T00:27:04.336Z,4.13
2022-09-28T00:29:41.946Z,2.88
2022-09-28T00:32:36.309Z,5.68
2022-09-28T00:35:13.520Z,7.05
2022-09-28T00:37:49.972Z,3.92
2022-09-28T00:40:27.012Z,3.25
2022-09-28T00:43:02.449Z,4.57
2022-09-28T00:45:37.645Z,5.28
2022-09-28T00:48:14.039Z,5.53
2022-09-28T00:50:49.915Z,6.13
2022-09-28T00:53:27.932Z,4.82
2022-09-28T00:56:09.120Z,5.10
2022-09-28T00:58:49.075Z,4.47
2022-09-28T01:01:24.564Z,4.15
2022-09-28T01:04:03.183Z,4.00
2022-09-28T01:06:40.947Z,3.30
2022-09-28T01:09:19.202Z,5.60
2022-09-28T01:11:56.866Z,3.35
2022-09-28T01:14:32.654Z,4.60
2022-09-28T01:17:15.516Z,4.35
2022-09-28T01:20:34.843Z,4.13
2022-09-28T01:23:47.803Z,3.58
2022-09-28T01:27:01.100Z,3.05
2022-09-28T01:29:54.705Z,3.20
2022-09-28T01:32:52.755Z,3.45
2022-09-28T01:35:35.462Z,2.00
2022-09-28T01:38:20.234Z,4.15
2022-09-28T01:40:58.463Z,2.15
2022-09-28T01:43:41.502Z,2.97
2022-09-28T01:46:21.143Z,3.20
2022-09-28T01:49:00.383Z,2.08
2022-09-28T01:51:42.381Z,3.30
2022-09-28T01:54:19.494Z,2.72
2022-09-28T01:57:01.404Z,2.80
2022-09-28T01:59:41.699Z,2.08
2022-09-28T02:02:20.368Z,2.40
2022-09-28T02:05:02.533Z,1.83
2022-09-28T02:07:42.820Z,2.33
2022-09-28T02:10:23.239Z,4.22
2022-09-28T02:13:02.696Z,5.28
2022-09-28T02:15:44.847Z,4.82
2022-09-28T02:18:22.082Z,5.00
2022-09-28T02:20:58.186Z,5.95
2022-09-28T02:23:39.060Z,4.97
2022-09-28T02:26:15.743Z,4.55
2022-09-28T02:28:51.351Z,4.70
2022-09-28T02:31:30.011Z,5.13
2022-09-28T02:34:05.947Z,5.10
2022-09-28T02:37:01.823Z,6.07
2022-09-28T02:39:37.551Z,4.75
2022-09-28T02:42:17.139Z,5.15
2022-09-28T02:45:01.924Z,3.97
2022-09-28T02:47:44.781Z,5.90
2022-09-28T02:50:27.367Z,5.45
2022-09-28T02:53:13.753Z,6.25
2022-09-28T02:55:52.475Z,6.00
2022-09-28T02:58:38.605Z,8.65
2022-09-28T03:01:28.513Z,6.00
2022-09-28T03:04:11.893Z,5.55
2022-09-28T03:06:53.582Z,6.18
2022-09-28T03:09:32.774Z,3.83
2022-09-28T03:12:14.291Z,4.40
2022-09-28T03:14:51.332Z,4.38
2022-09-28T03:17:26.345Z,6.80
2022-09-28T03:20:04.579Z,5.00
2022-09-28T03:22:40.247Z,9.07
2022-09-28T03:25:14.879Z,9.50
2022-09-28T03:27:50.026Z,9.57
2022-09-28T03:30:24.628Z,7.50
2022-09-28T03:33:04.200Z,6.72
2022-09-28T03:35:41.601Z,7.32
2022-09-28T03:38:16.679Z,6.32
2022-09-28T03:40:58.754Z,7.20
2022-09-28T03:43:35.590Z,6.60
2022-09-28T03:46:11.595Z,7.15
2022-09-28T03:48:51.111Z,8.35
2022-09-28T03:51:31.360Z,5.72
2022-09-28T03:54:05.577Z,7.65
2022-09-28T03:56:40.794Z,9.38
2022-09-28T03:59:15.275Z,8.05
2022-09-28T04:01:50.654Z,5.97
2022-09-28T04:04:25.697Z,6.53
2022-09-28T04:07:03.573Z,7.18
2022-09-28T04:09:38.609Z,7.93
2022-09-28T04:12:13.179Z,6.25
2022-09-28T04:14:47.450Z,5.28
2022-09-28T04:17:26.349Z,5.13
2022-09-28T04:20:01.858Z,5.38
2022-09-28T04:22:58.040Z,4.97
2022-09-28T04:25:33.405Z,4.22
2022-09-28T04:28:24.080Z,4.60
2022-09-28T04:30:58.567Z,8.02
2022-09-28T04:33:32.980Z,4.15
2022-09-28T04:36:08.504Z,4.90
2022-09-28T04:38:53.297Z,5.70
2022-09-28T04:41:33.925Z,7.45
2022-09-28T04:44:08.346Z,7.78
2022-09-28T04:46:42.663Z,10.23
2022-09-28T04:49:37.828Z,10.57
2022-09-28T04:52:18.775Z,10.40
2022-09-28T04:54:58.589Z,11.30
2022-09-28T04:57:34.091Z,9.60
2022-09-28T05:00:10.433Z,10.18
2022-09-28T05:02:48.576Z,11.88
2022-09-28T05:05:53.302Z,9.15
2022-09-28T05:08:48.658Z,13.15
2022-09-28T05:11:26.469Z,9.25
2022-09-28T05:14:01.633Z,12.00
2022-09-28T05:16:38.245Z,14.18
2022-09-28T05:19:35.606Z,9.68
2022-09-28T05:22:16.506Z,10.43
2022-09-28T05:24:54.207Z,10.23
2022-09-28T05:27:34.985Z,14.93
2022-09-28T05:30:24.617Z,12.13
2022-09-28T05:33:22.654Z,8.60
2022-09-28T05:36:06.333Z,12.00
2022-09-28T05:38:42.279Z,12.82
2022-09-28T05:41:17.517Z,10.68
2022-09-28T05:44:18.423Z,12.98
2022-09-28T05:46:57.808Z,7.60
2022-09-28T05:49:33.806Z,15.00
2022-09-28T05:52:09.462Z,11.88
2022-09-28T05:54:49.448Z,12.52
2022-09-28T05:57:24.528Z,8.57
2022-09-28T06:00:02.774Z,11.75
2022-09-28T06:02:47.022Z,13.13
2022-09-28T06:05:26.058Z,13.82
2022-09-28T06:08:02.622Z,10.98
2022-09-28T06:10:38.705Z,12.75
2022-09-28T06:13:15.663Z,11.70
2022-09-28T06:15:52.869Z,13.35
2022-09-28T06:18:28.662Z,11.43
2022-09-28T06:21:23.631Z,10.63
2022-09-28T06:23:59.144Z,12.73
2022-09-28T06:26:34.867Z,13.52
2022-09-28T06:29:10.078Z,9.70
2022-09-28T06:31:47.389Z,11.75
2022-09-28T06:34:23.149Z,14.32
2022-09-28T06:36:58.825Z,11.40
2022-09-28T06:39:35.151Z,9.18
2022-09-28T06:42:12.002Z,9.70
2022-09-28T06:45:07.682Z,9.32
2022-09-28T06:48:00.059Z,8.18
2022-09-28T06:50:46.324Z,10.77
2022-09-28T06:53:34.234Z,11.93
2022-09-28T06:56:18.397Z,10.52
2022-09-28T06:58:54.159Z,9.38
2022-09-28T07:01:33.005Z,9.43
2022-09-28T07:04:21.695Z,11.00
2022-09-28T07:07:20.364Z,13.63
2022-09-28T07:10:16.859Z,9.07
2022-09-28T07:13:35.388Z,11.27
2022-09-28T07:16:17.059Z,7.32
2022-09-28T07:18:53.111Z,8.07
2022-09-28T07:21:30.828Z,7.63
2022-09-28T07:24:09.815Z,8.23
2022-09-28T07:27:03.632Z,11.32
2022-09-28T07:30:03.676Z,9.32
2022-09-28T07:32:52.600Z,8.23
2022-09-28T07:35:56.894Z,8.95
2022-09-28T07:38:37.734Z,10.13
2022-09-28T07:41:14.496Z,7.82
2022-09-28T07:44:00.526Z,9.18
2022-09-28T07:46:40.232Z,7.18
2022-09-28T07:49:24.145Z,8.27
2022-09-28T07:52:21.927Z,10.18
2022-09-28T07:55:19.680Z,8.23
2022-09-28T07:58:14.892Z,7.80
2022-09-28T08:01:16.561Z,7.25
2022-09-28T08:03:52.479Z,11.40
2022-09-28T08:06:27.639Z,8.15
2022-09-28T08:09:04.324Z,7.13
2022-09-28T08:12:01.381Z,10.23
2022-09-28T08:14:50.370Z,6.80
2022-09-28T08:17:34.917Z,9.82
2022-09-28T08:20:27.018Z,7.30
2022-09-28T08:23:07.435Z,9.05
2022-09-28T08:25:45.597Z,11.30
2022-09-28T08:28:28.179Z,6.65
2022-09-28T08:31:08.954Z,9.85
2022-09-28T08:34:16.368Z,8.95
2022-09-28T08:37:10.785Z,8.30
2022-09-28T08:40:07.389Z,10.52
2022-09-28T08:43:07.041Z,7.65
2022-09-28T08:46:07.833Z,9.50
2022-09-28T08:49:25.707Z,8.90
2022-09-28T08:52:26.731Z,11.65
2022-09-28T08:55:20.189Z,12.10
2022-09-28T08:58:00.466Z,9.98
2022-09-28T09:00:42.917Z,8.10
2022-09-28T09:03:24.268Z,11.05
2022-09-28T09:06:28.567Z,9.35
2022-09-28T09:09:15.187Z,10.38
2022-09-28T09:12:02.489Z,9.10
2022-09-28T09:15:21.050Z,10.27
2022-09-28T09:18:07.629Z,11.00
2022-09-28T09:21:08.719Z,8.57
2022-09-28T09:23:58.615Z,11.18
2022-09-28T09:26:44.722Z,11.55
2022-09-28T09:29:31.708Z,11.05
2022-09-28T09:32:40.129Z,8.60
2022-09-28T09:35:45.446Z,13.38
2022-09-28T09:39:06.877Z,10.55
2022-09-28T09:42:13.229Z,13.32
2022-09-28T09:45:35.827Z,11.00
2022-09-28T09:48:26.877Z,13.98
2022-09-28T09:51:06.967Z,13.18
2022-09-28T09:53:51.696Z,17.42
2022-09-28T09:56:39.702Z,13.40
2022-09-28T09:59:29.536Z,11.95
2022-09-28T10:02:33.610Z,10.35
2022-09-28T10:05:29.444Z,15.05
2022-09-28T10:08:24.599Z,18.15
2022-09-28T10:11:10.762Z,13.93
2022-09-28T10:13:52.651Z,10.45
2022-09-28T10:16:54.512Z,15.18
2022-09-28T10:19:49.936Z,16.88
2022-09-28T10:22:43.620Z,55.08
2022-09-28T10:25:25.069Z,12.63
2022-09-28T10:28:00.475Z,10.05
2022-09-28T10:30:46.142Z,6.72
2022-09-28T10:33:35.815Z,5.47
2022-09-28T10:36:15.514Z,6.90
2022-09-28T10:38:52.772Z,4.75
2022-09-28T10:41:37.327Z,9.23
2022-09-28T10:44:22.113Z,3.38
2022-09-28T10:47:25.269Z,4.03
2022-09-28T10:50:02.634Z,3.80
2022-09-28T10:52:47.957Z,2.17
2022-09-28T10:56:02.413Z,2.05
2022-09-28T10:58:41.046Z,2.30
2022-09-28T11:01:24.934Z,2.55
2022-09-28T11:04:04.034Z,3.40
2022-09-28T11:06:43.666Z,3.70
2022-09-28T11:09:31.590Z,3.78
2022-09-28T11:12:19.504Z,3.33
2022-09-28T11:15:00.679Z,2.67
2022-09-28T11:17:40.444Z,2.95
2022-09-28T11:20:43.712Z,5.00
2022-09-28T11:23:28.388Z,3.75
2022-09-28T11:26:13.761Z,4.03
2022-09-28T11:28:56.715Z,5.18
2022-09-28T11:31:46.866Z,5.18
2022-09-28T11:34:41.849Z,6.13
2022-09-28T11:37:51.370Z,3.95
2022-09-28T11:40:54.894Z,3.60
2022-09-28T11:43:46.505Z,4.03
2022-09-28T11:46:30.418Z,3.75
2022-09-28T11:49:27.594Z,3.08
2022-09-28T11:52:08.051Z,5.32
2022-09-28T11:54:49.960Z,5.32
2022-09-28T11:57:28.665Z,5.93
2022-09-28T12:00:07.163Z,3.83
2022-09-28T12:02:57.689Z,5.03
2022-09-28T12:05:38.226Z,3.75
2022-09-28T12:08:17.650Z,5.15
2022-09-28T12:11:31.751Z,4.78
2022-09-28T12:14:33.471Z,4.55
2022-09-28T12:17:19.858Z,5.25
2022-09-28T12:19:58.507Z,2.67
2022-09-28T12:22:41.822Z,6.38
2022-09-28T12:25:20.612Z,4.03
2022-09-28T12:28:01.452Z,4.88
2022-09-28T12:30:42.243Z,3.58
2022-09-28T12:33:21.293Z,4.68
2022-09-28T12:36:13.240Z,2.47
2022-09-28T12:39:40.855Z,3.28
2022-09-28T12:42:21.955Z,3.00
2022-09-28T12:45:19.226Z,4.90
2022-09-28T12:48:20.030Z,4.97
2022-09-28T12:51:06.613Z,2.10
2022-09-28T12:54:00.606Z,2.72
2022-09-28T12:56:46.108Z,3.00
2022-09-28T12:59:27.011Z,5.32
2022-09-28T13:02:38.514Z,4.20
2022-09-28T13:05:49.346Z,2.40
2022-09-28T13:08:34.044Z,6.10
2022-09-28T13:11:17.469Z,4.07
2022-09-28T13:14:03.531Z,3.28
2022-09-28T13:16:47.663Z,2.55
2022-09-28T13:19:33.802Z,3.72
2022-09-28T13:22:23.771Z,3.63
2022-09-28T13:25:07.558Z,3.13
2022-09-28T13:27:47.853Z,5.05
2022-09-28T13:30:24.612Z,3.95
2022-09-28T13:33:03.105Z,2.92
2022-09-28T13:35:45.632Z,2.60
2022-09-28T13:38:51.895Z,2.95
2022-09-28T13:41:30.858Z,1.92
2022-09-28T13:44:39.941Z,3.58
2022-09-28T13:47:27.295Z,2.58
2022-09-28T13:50:18.832Z,2.15
2022-09-28T13:53:02.890Z,2.45
2022-09-28T13:55:45.936Z,4.63
2022-09-28T13:58:27.517Z,6.80
2022-09-28T14:01:09.550Z,3.15
2022-09-28T14:04:01.050Z,2.50
2022-09-28T14:06:37.318Z,3.88
2022-09-28T14:09:44.280Z,2.65
2022-09-28T14:12:50.588Z,2.28
2022-09-28T14:15:45.062Z,2.90
2022-09-28T14:18:29.941Z,3.30
2022-09-28T14:21:27.577Z,1.45
2022-09-28T14:24:15.906Z,3.10
2022-09-28T14:27:45.648Z,1.33
2022-09-28T14:30:29.249Z,1.63
2022-09-28T14:33:05.092Z,2.88
2022-09-28T14:35:45.896Z,1.10
2022-09-28T14:38:39.825Z,0.82
2022-09-28T14:41:29.923Z,0.98
2022-09-28T14:44:12.147Z,1.13
2022-09-28T14:46:49.292Z,0.45
2022-09-28T14:49:54.894Z,1.42
2022-09-28T14:52:45.641Z,1.50
2022-09-28T14:55:25.282Z,2.17
2022-09-28T14:58:04.421Z,1.48
2022-09-28T15:00:43.870Z,1.17
2022-09-28T15:03:19.770Z,3.40
2022-09-28T15:05:55.537Z,1.95
2022-09-28T15:08:41.906Z,5.80
2022-09-28T15:11:21.284Z,5.20
2022-09-28T15:14:12.417Z,6.38
2022-09-28T15:16:48.163Z,5.80
2022-09-28T15:19:31.476Z,9.05
2022-09-28T15:22:08.755Z,7.03
2022-09-28T15:24:44.570Z,10.52
2022-09-28T15:27:21.171Z,11.80
2022-09-28T15:30:06.466Z,13.02
2022-09-28T15:32:42.139Z,14.32
2022-09-28T15:35:22.279Z,9.90
2022-09-28T15:37:57.983Z,13.00
2022-09-28T15:40:38.454Z,10.93
2022-09-28T15:43:28.929Z,12.57
2022-09-28T15:46:17.865Z,12.30
2022-09-28T15:48:57.061Z,7.30
2022-09-28T15:51:33.406Z,16.33
2022-09-28T15:54:20.902Z,11.05
2022-09-28T15:57:01.412Z,15.27
2022-09-28T15:59:38.465Z,11.20
2022-09-28T16:02:22.366Z,10.32
2022-09-28T16:04:58.461Z,10.98
2022-09-28T16:07:42.282Z,13.65
2022-09-28T16:10:37.595Z,11.10
2022-09-28T16:13:20.359Z,10.02
2022-09-28T16:16:01.492Z,9.15
2022-09-28T16:18:41.378Z,9.32
2022-09-28T16:21:44.993Z,13.30
2022-09-28T16:24:28.251Z,13.77
2022-09-28T16:27:05.181Z,14.02
2022-09-28T16:29:42.882Z,8.55
2022-09-28T16:32:43.417Z,9.48
2022-09-28T16:35:30.682Z,6.43
2022-09-28T16:38:14.151Z,6.60
2022-09-28T16:40:52.182Z,7.28
2022-09-28T16:43:31.964Z,9.20
2022-09-28T16:46:11.064Z,12.38
2022-09-28T16:48:50.454Z,7.43
2022-09-28T16:51:28.023Z,7.20
2022-09-28T16:54:34.613Z,6.32
2022-09-28T16:57:10.697Z,8.13
2022-09-28T16:59:47.805Z,5.72
2022-09-28T17:02:46.780Z,5.68
2022-09-28T17:05:26.343Z,4.10
2022-09-28T17:08:06.528Z,4.18
2022-09-28T17:11:09.845Z,4.88
2022-09-28T17:13:42.424Z,5.43
2022-09-28T17:16:19.821Z,6.00
2022-09-28T17:18:58.045Z,3.88
2022-09-28T17:21:35.543Z,2.78
2022-09-28T17:24:12.973Z,2.50
2022-09-28T17:26:50.268Z,1.95
2022-09-28T17:29:25.668Z,2.55
2022-09-28T17:32:00.907Z,3.63
2022-09-28T17:34:36.307Z,3.13
2022-09-28T17:37:11.691Z,2.25
2022-09-28T17:39:49.081Z,1.92
2022-09-28T17:42:24.263Z,2.40
2022-09-28T17:44:59.529Z,3.90
2022-09-28T17:47:35.788Z,1.73
2022-09-28T17:50:26.422Z,1.92
2022-09-28T17:53:04.527Z,1.48
2022-09-28T17:55:44.658Z,2.72
2022-09-28T17:58:22.716Z,3.38
2022-09-28T18:00:57.947Z,2.83
2022-09-28T18:03:34.118Z,1.52
2022-09-28T18:06:16.238Z,2.00
2022-09-28T18:08:53.003Z,2.45
2022-09-28T18:11:30.944Z,0.60
2022-09-28T18:14:11.016Z,2.35
2022-09-28T18:16:47.165Z,2.20
2022-09-28T18:19:23.085Z,2.85
2022-09-28T18:21:59.911Z,1.42
2022-09-28T18:24:35.645Z,1.92
2022-09-28T18:27:12.925Z,1.48
2022-09-28T18:29:49.780Z,3.08
2022-09-28T18:32:24.877Z,1.35
2022-09-28T18:34:59.990Z,2.35
2022-09-28T18:37:38.692Z,2.30
2022-09-28T18:40:14.985Z,2.35
2022-09-28T18:42:54.141Z,3.15
2022-09-28T18:45:29.378Z,2.00
2022-09-28T18:48:05.038Z,5.13
2022-09-28T18:50:40.479Z,1.77
2022-09-28T18:53:16.373Z,1.83
2022-09-28T18:55:52.799Z,3.92
2022-09-28T18:58:30.859Z,2.53
2022-09-28T19:01:28.983Z,4.05
2022-09-28T19:04:07.988Z,3.78
2022-09-28T19:06:44.679Z,3.25
2022-09-28T19:09:26.621Z,2.88
2022-09-28T19:12:02.062Z,2.50
2022-09-28T19:14:45.463Z,3.90
2022-09-28T19:17:21.463Z,6.32
2022-09-28T19:19:56.580Z,3.75
2022-09-28T19:22:33.064Z,4.18
2022-09-28T19:25:08.468Z,4.07
2022-09-28T19:27:43.550Z,3.83
2022-09-28T19:30:22.102Z,5.38
2022-09-28T19:32:57.518Z,6.38
2022-09-28T19:35:32.968Z,3.10
2022-09-28T19:38:08.498Z,3.58
2022-09-28T19:40:43.984Z,2.33
2022-09-28T19:43:23.748Z,4.22
2022-09-28T19:46:07.023Z,5.60
2022-09-28T19:48:45.371Z,5.10
2022-09-28T19:51:21.288Z,6.38
2022-09-28T19:53:56.389Z,5.18
2022-09-28T19:56:33.435Z,7.18
2022-09-28T19:59:09.215Z,7.97
2022-09-28T20:01:46.704Z,6.55
2022-09-28T20:04:27.141Z,8.50
2022-09-28T20:07:02.277Z,7.68
2022-09-28T20:09:38.182Z,5.68
2022-09-28T20:12:13.417Z,6.85
2022-09-28T20:14:48.590Z,8.57
2022-09-28T20:17:26.797Z,10.07
2022-09-28T20:20:05.065Z,6.63
2022-09-28T20:22:40.207Z,8.00
2022-09-28T20:25:15.358Z,9.90
2022-09-28T20:27:50.456Z,9.95
2022-09-28T20:30:25.978Z,7.00
2022-09-28T20:33:03.414Z,7.63
2022-09-28T20:35:42.174Z,7.25
2022-09-28T20:38:19.427Z,8.57
2022-09-28T20:40:54.565Z,6.53
2022-09-28T20:43:31.612Z,7.93
2022-09-28T20:46:09.057Z,4.78
2022-09-28T20:48:46.400Z,5.18
2022-09-28T20:51:23.142Z,5.68
2022-09-28T20:53:59.471Z,5.22
2022-09-28T20:56:39.917Z,4.57
2022-09-28T20:59:16.950Z,5.95
2022-09-28T21:01:52.701Z,5.85
2022-09-28T21:04:52.221Z,6.70
2022-09-28T21:07:28.841Z,6.22
2022-09-28T21:10:04.089Z,4.35
2022-09-28T21:12:39.158Z,5.10
2022-09-28T21:15:18.548Z,5.63
2022-09-28T21:17:54.228Z,4.50
2022-09-28T21:20:32.146Z,4.32
2022-09-28T21:23:07.434Z,7.15
2022-09-28T21:25:43.658Z,3.42
2022-09-28T21:28:22.575Z,9.35
2022-09-28T21:30:58.254Z,3.95
2022-09-28T21:33:33.394Z,3.88
2022-09-28T21:36:11.913Z,4.90
2022-09-28T21:38:47.981Z,4.88
2022-09-28T21:41:23.300Z,2.53
2022-09-28T21:43:58.650Z,6.40
2022-09-28T21:46:35.889Z,5.13
2022-09-28T21:49:14.336Z,4.38
2022-09-28T21:51:51.535Z,3.55
2022-09-28T21:54:27.054Z,5.97
2022-09-28T21:57:03.088Z,3.47
2022-09-28T21:59:38.645Z,4.43
2022-09-28T22:02:15.540Z,4.40
2022-09-28T22:04:51.290Z,4.22
2022-09-28T22:07:28.723Z,6.38
2022-09-28T22:10:06.544Z,3.90
2022-09-28T22:12:44.635Z,5.30
2022-09-28T22:15:23.018Z,4.65
2022-09-28T22:17:59.961Z,5.03
2022-09-28T22:20:35.530Z,4.82
2022-09-28T22:23:12.662Z,4.40
2022-09-28T22:25:47.915Z,5.93
2022-09-28T22:28:23.458Z,8.73
2022-09-28T22:30:59.419Z,8.48
2022-09-28T22:33:35.791Z,4.43
2022-09-28T22:36:11.731Z,8.00
2022-09-28T22:38:49.227Z,4.70
2022-09-28T22:41:24.977Z,6.13
2022-09-28T22:44:00.706Z,8.32
2022-09-28T22:46:36.451Z,5.18
2022-09-28T22:49:17.179Z,7.50
2022-09-28T22:51:54.082Z,8.38
2022-09-28T22:54:31.592Z,6.90
2022-09-28T22:57:06.837Z,4.57
2022-09-28T22:59:41.874Z,5.25
2022-09-28T23:02:17.194Z,6.68
2022-09-28T23:04:52.966Z,9.57
2022-09-28T23:07:28.799Z,5.45
2022-09-28T23:10:08.459Z,9.15
2022-09-28T23:12:43.897Z,6.65
2022-09-28T23:15:19.294Z,6.10
2022-09-28T23:17:57.334Z,8.45
2022-09-28T23:20:35.364Z,7.13
2022-09-28T23:23:10.648Z,5.30
2022-09-28T23:25:47.803Z,6.72
2022-09-28T23:28:23.078Z,7.10
2022-09-28T23:30:58.632Z,6.57
2022-09-28T23:33:34.080Z,5.10
2022-09-28T23:36:12.133Z,6.38
2022-09-28T23:38:47.293Z,3.65
2022-09-28T23:41:24.518Z,5.53
2022-09-28T23:43:59.796Z,7.00
2022-09-28T23:46:35.404Z,4.85
2022-09-28T23:49:12.100Z,4.38
2022-09-28T23:51:47.515Z,2.90
2022-09-28T23:54:23.029Z,4.40
2022-09-28T23:57:03.573Z,4.18
2022-09-28T23:59:39.146Z,4.03
